LIPZ/VCE METAR and TAF weather

Enter ICAO airport designator
Station Type Date Time Source
LIPZ METAR 2019/06/17 06:50 UTC NOAA

LIPZ 170650Z 08012KT CAVOK 25/16 Q1016 NOSIG


Station Type Date Time Source
LIPZ Decoded METAR 2019/06/17 06:50 UTC NOAA

Venezia / Tessera, Italy (LIPZ) 45-30N 012-20E 6M
Jun 17, 2019 - 02:50 AM EDT / 2019.06.17 0650 UTC
Wind: from the E (080 degrees) at 14 MPH (12 KT):0
Visibility: greater than 7 mile(s):0
Temperature: 77 F (25 C)
Dew Point: 60 F (16 C)
Relative Humidity: 57%
Pressure (altimeter): 30.00 in. Hg (1016 hPa)
ob: LIPZ 170650Z 08012KT CAVOK 25/16 Q1016 NOSIG
cycle: 7

Station Type Date Time Source
LIPZ TAF 2019/06/17 06:24 UTC NOAA

TAF LIPZ 170500Z 1706/1812 04007KT CAVOK
BECMG 1708/1710 16010KT
BECMG 1718/1720 04007KT
TEMPO 1718/1724 TSRA
BECMG 1808/1810 16010KT

Example: see airport list